sensor_id;sensor_type;location;lat;lon;timestamp;P1;durP1;ratioP1;P2;durP2;ratioP2
59938;SDS011;45801;51.810;19.444;2023-02-04T00:02:03;11.50;;;6.80;;
59938;SDS011;45801;51.810;19.444;2023-02-04T00:04:29;12.50;;;7.70;;
59938;SDS011;45801;51.810;19.444;2023-02-04T00:06:56;13.90;;;8.80;;
59938;SDS011;45801;51.810;19.444;2023-02-04T00:09:22;14.90;;;9.90;;
59938;SDS011;45801;51.810;19.444;2023-02-04T00:11:49;18.50;;;11.70;;
59938;SDS011;45801;51.810;19.444;2023-02-04T00:14:15;16.60;;;11.90;;
59938;SDS011;45801;51.810;19.444;2023-02-04T00:16:42;18.70;;;13.10;;
59938;SDS011;45801;51.810;19.444;2023-02-04T00:19:08;16.10;;;10.50;;
59938;SDS011;45801;51.810;19.444;2023-02-04T00:21:35;16.90;;;10.60;;
59938;SDS011;45801;51.810;19.444;2023-02-04T00:24:01;14.70;;;9.90;;
59938;SDS011;45801;51.810;19.444;2023-02-04T00:26:28;16.70;;;10.60;;
59938;SDS011;45801;51.810;19.444;2023-02-04T00:28:54;14.80;;;10.50;;
59938;SDS011;45801;51.810;19.444;2023-02-04T00:31:21;18.20;;;11.60;;
59938;SDS011;45801;51.810;19.444;2023-02-04T00:33:48;15.90;;;9.70;;
59938;SDS011;45801;51.810;19.444;2023-02-04T00:36:14;14.20;;;10.10;;
59938;SDS011;45801;51.810;19.444;2023-02-04T00:38:41;16.10;;;11.30;;
59938;SDS011;45801;51.810;19.444;2023-02-04T00:41:07;15.20;;;9.60;;
59938;SDS011;45801;51.810;19.444;2023-02-04T00:43:34;14.90;;;10.20;;
59938;SDS011;45801;51.810;19.444;2023-02-04T00:46:00;14.20;;;9.60;;
59938;SDS011;45801;51.810;19.444;2023-02-04T00:48:27;15.10;;;10.30;;
59938;SDS011;45801;51.810;19.444;2023-02-04T00:50:53;16.20;;;11.40;;
59938;SDS011;45801;51.810;19.444;2023-02-04T00:53:20;16.50;;;11.30;;
59938;SDS011;45801;51.810;19.444;2023-02-04T00:55:46;16.00;;;11.20;;
59938;SDS011;45801;51.810;19.444;2023-02-04T00:58:13;14.00;;;9.50;;
59938;SDS011;45801;51.810;19.444;2023-02-04T01:00:40;15.10;;;10.30;;
59938;SDS011;45801;51.810;19.444;2023-02-04T01:03:07;17.20;;;11.10;;
59938;SDS011;45801;51.810;19.444;2023-02-04T01:05:34;14.90;;;9.20;;
59938;SDS011;45801;51.810;19.444;2023-02-04T01:08:01;12.60;;;9.90;;
59938;SDS011;45801;51.810;19.444;2023-02-04T01:10:28;13.50;;;8.50;;
59938;SDS011;45801;51.810;19.444;2023-02-04T01:12:56;15.70;;;10.00;;
59938;SDS011;45801;51.810;19.444;2023-02-04T01:15:22;14.20;;;8.90;;
59938;SDS011;45801;51.810;19.444;2023-02-04T01:17:49;13.80;;;8.50;;
59938;SDS011;45801;51.810;19.444;2023-02-04T01:20:15;13.50;;;8.80;;
59938;SDS011;45801;51.810;19.444;2023-02-04T01:22:42;12.50;;;7.60;;
59938;SDS011;45801;51.810;19.444;2023-02-04T01:25:09;13.70;;;6.90;;
59938;SDS011;45801;51.810;19.444;2023-02-04T01:27:35;11.90;;;7.50;;
59938;SDS011;45801;51.810;19.444;2023-02-04T01:30:03;10.90;;;6.80;;
59938;SDS011;45801;51.810;19.444;2023-02-04T01:32:30;12.40;;;6.50;;
59938;SDS011;45801;51.810;19.444;2023-02-04T01:34:57;10.90;;;6.30;;
59938;SDS011;45801;51.810;19.444;2023-02-04T01:37:23;12.20;;;6.50;;
59938;SDS011;45801;51.810;19.444;2023-02-04T01:39:50;9.50;;;5.40;;
59938;SDS011;45801;51.810;19.444;2023-02-04T01:42:16;11.00;;;5.80;;
59938;SDS011;45801;51.810;19.444;2023-02-04T01:44:43;11.30;;;5.50;;
59938;SDS011;45801;51.810;19.444;2023-02-04T01:47:09;11.60;;;6.00;;
59938;SDS011;45801;51.810;19.444;2023-02-04T01:49:36;10.40;;;5.60;;
59938;SDS011;45801;51.810;19.444;2023-02-04T01:52:03;9.80;;;5.40;;
59938;SDS011;45801;51.810;19.444;2023-02-04T01:54:30;9.90;;;6.20;;
59938;SDS011;45801;51.810;19.444;2023-02-04T01:56:57;9.90;;;5.00;;
59938;SDS011;45801;51.810;19.444;2023-02-04T01:59:24;11.00;;;5.50;;
59938;SDS011;45801;51.810;19.444;2023-02-04T02:01:52;9.70;;;6.00;;
59938;SDS011;45801;51.810;19.444;2023-02-04T02:04:20;8.20;;;4.80;;
59938;SDS011;45801;51.810;19.444;2023-02-04T02:06:56;9.00;;;4.40;;
59938;SDS011;45801;51.810;19.444;2023-02-04T02:09:25;10.70;;;4.90;;
59938;SDS011;45801;51.810;19.444;2023-02-04T02:11:52;8.70;;;4.80;;
59938;SDS011;45801;51.810;19.444;2023-02-04T02:14:19;9.30;;;4.80;;
59938;SDS011;45801;51.810;19.444;2023-02-04T02:16:46;9.50;;;4.30;;
59938;SDS011;45801;51.810;19.444;2023-02-04T02:19:18;9.90;;;5.60;;
59938;SDS011;45801;51.810;19.444;2023-02-04T02:21:54;8.30;;;4.70;;
59938;SDS011;45801;51.810;19.444;2023-02-04T02:24:32;9.00;;;4.90;;
59938;SDS011;45801;51.810;19.444;2023-02-04T02:27:01;9.20;;;5.20;;
59938;SDS011;45801;51.810;19.444;2023-02-04T02:29:32;8.80;;;5.10;;
59938;SDS011;45801;51.810;19.444;2023-02-04T02:31:59;10.40;;;5.20;;
59938;SDS011;45801;51.810;19.444;2023-02-04T02:34:26;10.40;;;6.20;;
59938;SDS011;45801;51.810;19.444;2023-02-04T02:36:55;9.70;;;5.20;;
59938;SDS011;45801;51.810;19.444;2023-02-04T02:39:24;10.30;;;6.20;;
59938;SDS011;45801;51.810;19.444;2023-02-04T02:41:51;10.60;;;5.50;;
59938;SDS011;45801;51.810;19.444;2023-02-04T02:44:19;11.00;;;5.70;;
59938;SDS011;45801;51.810;19.444;2023-02-04T02:46:46;11.00;;;6.10;;
59938;SDS011;45801;51.810;19.444;2023-02-04T02:49:14;10.30;;;6.60;;
59938;SDS011;45801;51.810;19.444;2023-02-04T02:51:43;9.70;;;5.60;;
59938;SDS011;45801;51.810;19.444;2023-02-04T02:54:31;10.60;;;6.10;;
59938;SDS011;45801;51.810;19.444;2023-02-04T02:56:59;11.90;;;6.50;;
59938;SDS011;45801;51.810;19.444;2023-02-04T02:59:25;13.90;;;7.40;;
59938;SDS011;45801;51.810;19.444;2023-02-04T03:01:54;11.50;;;6.70;;
59938;SDS011;45801;51.810;19.444;2023-02-04T03:04:26;11.50;;;6.90;;
59938;SDS011;45801;51.810;19.444;2023-02-04T03:06:55;11.30;;;6.50;;
59938;SDS011;45801;51.810;19.444;2023-02-04T03:09:22;11.20;;;6.50;;
59938;SDS011;45801;51.810;19.444;2023-02-04T03:11:51;11.50;;;6.10;;
59938;SDS011;45801;51.810;19.444;2023-02-04T03:14:17;11.20;;;6.80;;
59938;SDS011;45801;51.810;19.444;2023-02-04T03:16:45;13.10;;;7.20;;
59938;SDS011;45801;51.810;19.444;2023-02-04T03:19:13;10.70;;;6.60;;
59938;SDS011;45801;51.810;19.444;2023-02-04T03:21:40;11.90;;;6.80;;
59938;SDS011;45801;51.810;19.444;2023-02-04T03:24:07;10.90;;;7.00;;
59938;SDS011;45801;51.810;19.444;2023-02-04T03:26:34;11.30;;;6.70;;
59938;SDS011;45801;51.810;19.444;2023-02-04T03:29:01;11.20;;;6.80;;
59938;SDS011;45801;51.810;19.444;2023-02-04T03:31:27;13.10;;;7.00;;
59938;SDS011;45801;51.810;19.444;2023-02-04T03:33:54;13.70;;;7.20;;
59938;SDS011;45801;51.810;19.444;2023-02-04T03:36:20;12.20;;;6.60;;
59938;SDS011;45801;51.810;19.444;2023-02-04T03:38:47;10.70;;;6.00;;
59938;SDS011;45801;51.810;19.444;2023-02-04T03:41:14;13.10;;;8.10;;
59938;SDS011;45801;51.810;19.444;2023-02-04T03:43:40;11.30;;;6.80;;
59938;SDS011;45801;51.810;19.444;2023-02-04T03:46:07;9.60;;;5.10;;
59938;SDS011;45801;51.810;19.444;2023-02-04T03:48:33;9.70;;;6.00;;
59938;SDS011;45801;51.810;19.444;2023-02-04T03:51:00;11.30;;;6.10;;
59938;SDS011;45801;51.810;19.444;2023-02-04T03:53:27;10.90;;;5.60;;
59938;SDS011;45801;51.810;19.444;2023-02-04T03:55:54;9.20;;;4.80;;
59938;SDS011;45801;51.810;19.444;2023-02-04T03:58:20;9.50;;;5.00;;
59938;SDS011;45801;51.810;19.444;2023-02-04T04:00:47;9.20;;;4.70;;
59938;SDS011;45801;51.810;19.444;2023-02-04T04:03:14;10.30;;;5.60;;
59938;SDS011;45801;51.810;19.444;2023-02-04T04:05:40;11.00;;;6.80;;
59938;SDS011;45801;51.810;19.444;2023-02-04T04:08:07;10.00;;;5.40;;
59938;SDS011;45801;51.810;19.444;2023-02-04T04:10:33;11.20;;;6.00;;
59938;SDS011;45801;51.810;19.444;2023-02-04T04:13:00;10.80;;;5.40;;
59938;SDS011;45801;51.810;19.444;2023-02-04T04:15:26;11.20;;;5.40;;
59938;SDS011;45801;51.810;19.444;2023-02-04T04:17:53;9.60;;;5.20;;
59938;SDS011;45801;51.810;19.444;2023-02-04T04:20:19;10.70;;;5.60;;
59938;SDS011;45801;51.810;19.444;2023-02-04T04:22:50;10.20;;;5.60;;
59938;SDS011;45801;51.810;19.444;2023-02-04T04:25:17;11.00;;;6.40;;
59938;SDS011;45801;51.810;19.444;2023-02-04T04:27:44;12.50;;;5.90;;
59938;SDS011;45801;51.810;19.444;2023-02-04T04:30:10;11.40;;;5.90;;
59938;SDS011;45801;51.810;19.444;2023-02-04T04:32:37;11.20;;;6.60;;
59938;SDS011;45801;51.810;19.444;2023-02-04T04:35:03;14.60;;;7.20;;
59938;SDS011;45801;51.810;19.444;2023-02-04T04:37:30;13.10;;;7.60;;
59938;SDS011;45801;51.810;19.444;2023-02-04T04:39:57;14.00;;;7.70;;
59938;SDS011;45801;51.810;19.444;2023-02-04T04:42:25;12.20;;;6.80;;
59938;SDS011;45801;51.810;19.444;2023-02-04T04:44:52;12.50;;;7.00;;
59938;SDS011;45801;51.810;19.444;2023-02-04T04:47:18;10.80;;;5.70;;
59938;SDS011;45801;51.810;19.444;2023-02-04T04:49:46;10.70;;;5.60;;
59938;SDS011;45801;51.810;19.444;2023-02-04T04:52:12;9.50;;;5.20;;
59938;SDS011;45801;51.810;19.444;2023-02-04T04:54:39;10.80;;;5.80;;
59938;SDS011;45801;51.810;19.444;2023-02-04T04:57:05;10.10;;;4.80;;
59938;SDS011;45801;51.810;19.444;2023-02-04T04:59:32;10.50;;;5.80;;
59938;SDS011;45801;51.810;19.444;2023-02-04T05:01:58;10.80;;;5.30;;
59938;SDS011;45801;51.810;19.444;2023-02-04T05:04:26;11.30;;;6.10;;
59938;SDS011;45801;51.810;19.444;2023-02-04T05:06:52;10.20;;;5.40;;
59938;SDS011;45801;51.810;19.444;2023-02-04T05:09:19;10.80;;;5.50;;
59938;SDS011;45801;51.810;19.444;2023-02-04T05:11:45;12.80;;;6.90;;
59938;SDS011;45801;51.810;19.444;2023-02-04T05:14:13;9.10;;;5.10;;
59938;SDS011;45801;51.810;19.444;2023-02-04T05:16:39;11.00;;;5.70;;
59938;SDS011;45801;51.810;19.444;2023-02-04T05:19:06;11.70;;;5.70;;
59938;SDS011;45801;51.810;19.444;2023-02-04T05:21:32;11.70;;;6.00;;
59938;SDS011;45801;51.810;19.444;2023-02-04T05:23:59;10.70;;;5.80;;
59938;SDS011;45801;51.810;19.444;2023-02-04T05:26:26;10.80;;;5.60;;
59938;SDS011;45801;51.810;19.444;2023-02-04T05:28:53;10.00;;;5.60;;
59938;SDS011;45801;51.810;19.444;2023-02-04T05:31:19;9.40;;;5.60;;
59938;SDS011;45801;51.810;19.444;2023-02-04T05:33:46;12.70;;;7.50;;
59938;SDS011;45801;51.810;19.444;2023-02-04T05:36:12;12.30;;;6.60;;
59938;SDS011;45801;51.810;19.444;2023-02-04T05:38:39;10.70;;;4.80;;
59938;SDS011;45801;51.810;19.444;2023-02-04T05:41:05;12.20;;;6.00;;
59938;SDS011;45801;51.810;19.444;2023-02-04T05:43:31;11.90;;;6.60;;
59938;SDS011;45801;51.810;19.444;2023-02-04T05:45:58;11.70;;;6.40;;
59938;SDS011;45801;51.810;19.444;2023-02-04T05:48:25;12.30;;;6.40;;
59938;SDS011;45801;51.810;19.444;2023-02-04T05:50:51;12.00;;;7.40;;
59938;SDS011;45801;51.810;19.444;2023-02-04T05:53:18;10.90;;;6.80;;
59938;SDS011;45801;51.810;19.444;2023-02-04T05:55:44;11.80;;;6.70;;
59938;SDS011;45801;51.810;19.444;2023-02-04T05:58:11;13.60;;;7.90;;
59938;SDS011;45801;51.810;19.444;2023-02-04T06:00:38;12.40;;;7.00;;
59938;SDS011;45801;51.810;19.444;2023-02-04T06:03:04;12.60;;;8.60;;
59938;SDS011;45801;51.810;19.444;2023-02-04T06:05:31;11.20;;;6.80;;
59938;SDS011;45801;51.810;19.444;2023-02-04T06:07:58;11.60;;;6.80;;
59938;SDS011;45801;51.810;19.444;2023-02-04T06:10:24;12.00;;;6.80;;
59938;SDS011;45801;51.810;19.444;2023-02-04T06:12:51;12.10;;;7.30;;
59938;SDS011;45801;51.810;19.444;2023-02-04T06:15:19;11.80;;;7.80;;
59938;SDS011;45801;51.810;19.444;2023-02-04T06:17:45;11.70;;;6.20;;
59938;SDS011;45801;51.810;19.444;2023-02-04T06:20:13;11.00;;;6.20;;
59938;SDS011;45801;51.810;19.444;2023-02-04T06:22:40;9.50;;;6.30;;
59938;SDS011;45801;51.810;19.444;2023-02-04T06:25:07;9.10;;;5.50;;
59938;SDS011;45801;51.810;19.444;2023-02-04T06:27:33;10.00;;;5.70;;
59938;SDS011;45801;51.810;19.444;2023-02-04T06:30:00;9.50;;;5.40;;
59938;SDS011;45801;51.810;19.444;2023-02-04T06:32:27;10.80;;;5.80;;
59938;SDS011;45801;51.810;19.444;2023-02-04T06:34:53;10.70;;;6.40;;
59938;SDS011;45801;51.810;19.444;2023-02-04T06:37:21;10.50;;;5.20;;
59938;SDS011;45801;51.810;19.444;2023-02-04T06:39:47;9.90;;;5.80;;
59938;SDS011;45801;51.810;19.444;2023-02-04T06:42:14;10.20;;;5.90;;
59938;SDS011;45801;51.810;19.444;2023-02-04T06:44:40;11.20;;;6.40;;
59938;SDS011;45801;51.810;19.444;2023-02-04T06:47:07;9.90;;;5.40;;
59938;SDS011;45801;51.810;19.444;2023-02-04T06:49:33;9.80;;;4.90;;
59938;SDS011;45801;51.810;19.444;2023-02-04T06:52:00;9.40;;;4.60;;
59938;SDS011;45801;51.810;19.444;2023-02-04T06:54:26;9.70;;;4.70;;
59938;SDS011;45801;51.810;19.444;2023-02-04T06:56:53;8.80;;;4.60;;
59938;SDS011;45801;51.810;19.444;2023-02-04T06:59:19;11.40;;;5.80;;
59938;SDS011;45801;51.810;19.444;2023-02-04T07:01:46;10.80;;;5.10;;
59938;SDS011;45801;51.810;19.444;2023-02-04T07:04:12;10.80;;;5.10;;
59938;SDS011;45801;51.810;19.444;2023-02-04T07:06:39;10.20;;;4.80;;
59938;SDS011;45801;51.810;19.444;2023-02-04T07:09:06;10.10;;;5.00;;
59938;SDS011;45801;51.810;19.444;2023-02-04T07:11:33;11.00;;;5.60;;
59938;SDS011;45801;51.810;19.444;2023-02-04T07:13:59;10.10;;;5.00;;
59938;SDS011;45801;51.810;19.444;2023-02-04T07:16:26;10.20;;;4.90;;
59938;SDS011;45801;51.810;19.444;2023-02-04T07:18:52;10.20;;;5.10;;
59938;SDS011;45801;51.810;19.444;2023-02-04T07:21:19;8.90;;;5.10;;
59938;SDS011;45801;51.810;19.444;2023-02-04T07:23:45;9.80;;;4.40;;
59938;SDS011;45801;51.810;19.444;2023-02-04T07:26:12;10.30;;;4.80;;
59938;SDS011;45801;51.810;19.444;2023-02-04T07:28:38;9.60;;;4.40;;
59938;SDS011;45801;51.810;19.444;2023-02-04T07:31:06;10.40;;;5.00;;
59938;SDS011;45801;51.810;19.444;2023-02-04T07:33:33;10.00;;;4.60;;
59938;SDS011;45801;51.810;19.444;2023-02-04T07:35:59;9.40;;;4.80;;
59938;SDS011;45801;51.810;19.444;2023-02-04T07:38:27;9.90;;;4.90;;
59938;SDS011;45801;51.810;19.444;2023-02-04T07:40:53;12.10;;;6.10;;
59938;SDS011;45801;51.810;19.444;2023-02-04T07:43:20;11.20;;;6.00;;
59938;SDS011;45801;51.810;19.444;2023-02-04T07:45:47;11.50;;;5.20;;
59938;SDS011;45801;51.810;19.444;2023-02-04T07:48:14;10.60;;;4.70;;
59938;SDS011;45801;51.810;19.444;2023-02-04T07:50:41;10.50;;;5.50;;
59938;SDS011;45801;51.810;19.444;2023-02-04T07:53:07;11.20;;;5.90;;
59938;SDS011;45801;51.810;19.444;2023-02-04T07:55:34;11.50;;;5.10;;
59938;SDS011;45801;51.810;19.444;2023-02-04T07:58:00;11.30;;;5.20;;
59938;SDS011;45801;51.810;19.444;2023-02-04T08:00:27;11.10;;;5.30;;
59938;SDS011;45801;51.810;19.444;2023-02-04T08:02:54;10.20;;;5.20;;
59938;SDS011;45801;51.810;19.444;2023-02-04T08:05:20;10.90;;;4.60;;
59938;SDS011;45801;51.810;19.444;2023-02-04T08:07:47;8.70;;;4.80;;
59938;SDS011;45801;51.810;19.444;2023-02-04T08:10:13;10.40;;;5.30;;
59938;SDS011;45801;51.810;19.444;2023-02-04T08:12:40;10.60;;;4.90;;
59938;SDS011;45801;51.810;19.444;2023-02-04T08:15:07;11.00;;;4.90;;
59938;SDS011;45801;51.810;19.444;2023-02-04T08:17:34;9.90;;;5.20;;
59938;SDS011;45801;51.810;19.444;2023-02-04T08:20:01;9.90;;;4.90;;
59938;SDS011;45801;51.810;19.444;2023-02-04T08:22:28;13.70;;;5.50;;
59938;SDS011;45801;51.810;19.444;2023-02-04T08:24:55;10.90;;;4.80;;
59938;SDS011;45801;51.810;19.444;2023-02-04T08:27:21;12.40;;;5.40;;
59938;SDS011;45801;51.810;19.444;2023-02-04T08:29:48;11.20;;;5.80;;
59938;SDS011;45801;51.810;19.444;2023-02-04T08:32:14;11.40;;;5.00;;
59938;SDS011;45801;51.810;19.444;2023-02-04T08:34:41;10.50;;;4.60;;
59938;SDS011;45801;51.810;19.444;2023-02-04T08:37:09;10.80;;;4.90;;
59938;SDS011;45801;51.810;19.444;2023-02-04T08:39:35;10.00;;;4.30;;
59938;SDS011;45801;51.810;19.444;2023-02-04T08:42:03;11.30;;;4.70;;
59938;SDS011;45801;51.810;19.444;2023-02-04T08:44:30;9.20;;;4.40;;
59938;SDS011;45801;51.810;19.444;2023-02-04T08:46:56;7.60;;;3.90;;
59938;SDS011;45801;51.810;19.444;2023-02-04T08:49:23;9.90;;;5.40;;
59938;SDS011;45801;51.810;19.444;2023-02-04T08:51:50;9.00;;;4.70;;
59938;SDS011;45801;51.810;19.444;2023-02-04T08:54:17;9.60;;;4.10;;
59938;SDS011;45801;51.810;19.444;2023-02-04T08:56:44;10.30;;;4.00;;
59938;SDS011;45801;51.810;19.444;2023-02-04T08:59:10;10.40;;;3.00;;
59938;SDS011;45801;51.810;19.444;2023-02-04T09:01:37;9.30;;;3.80;;
59938;SDS011;45801;51.810;19.444;2023-02-04T09:04:03;10.00;;;4.10;;
59938;SDS011;45801;51.810;19.444;2023-02-04T09:06:30;9.20;;;4.40;;
59938;SDS011;45801;51.810;19.444;2023-02-04T09:08:56;9.90;;;4.60;;
59938;SDS011;45801;51.810;19.444;2023-02-04T09:11:23;11.20;;;4.40;;
59938;SDS011;45801;51.810;19.444;2023-02-04T09:13:49;11.30;;;5.00;;
59938;SDS011;45801;51.810;19.444;2023-02-04T09:16:16;10.50;;;4.40;;
59938;SDS011;45801;51.810;19.444;2023-02-04T09:18:43;9.60;;;4.70;;
59938;SDS011;45801;51.810;19.444;2023-02-04T09:21:10;11.40;;;4.20;;
59938;SDS011;45801;51.810;19.444;2023-02-04T09:23:36;10.80;;;4.50;;
59938;SDS011;45801;51.810;19.444;2023-02-04T09:26:03;11.30;;;5.10;;
59938;SDS011;45801;51.810;19.444;2023-02-04T09:28:31;11.30;;;5.00;;
59938;SDS011;45801;51.810;19.444;2023-02-04T09:30:58;10.60;;;4.80;;
59938;SDS011;45801;51.810;19.444;2023-02-04T09:33:25;10.40;;;4.10;;
59938;SDS011;45801;51.810;19.444;2023-02-04T09:35:52;10.30;;;4.40;;
59938;SDS011;45801;51.810;19.444;2023-02-04T09:38:18;10.90;;;4.30;;
59938;SDS011;45801;51.810;19.444;2023-02-04T09:40:46;9.60;;;4.30;;
59938;SDS011;45801;51.810;19.444;2023-02-04T09:43:38;9.40;;;3.80;;
59938;SDS011;45801;51.810;19.444;2023-02-04T09:46:21;8.60;;;3.70;;
59938;SDS011;45801;51.810;19.444;2023-02-04T09:48:49;9.90;;;4.00;;
59938;SDS011;45801;51.810;19.444;2023-02-04T09:51:19;9.90;;;3.50;;
59938;SDS011;45801;51.810;19.444;2023-02-04T09:53:47;16.00;;;5.60;;
59938;SDS011;45801;51.810;19.444;2023-02-04T09:56:16;13.50;;;5.40;;
59938;SDS011;45801;51.810;19.444;2023-02-04T09:58:44;12.40;;;5.00;;
59938;SDS011;45801;51.810;19.444;2023-02-04T10:01:14;10.20;;;4.30;;
59938;SDS011;45801;51.810;19.444;2023-02-04T10:03:43;11.60;;;4.80;;
59938;SDS011;45801;51.810;19.444;2023-02-04T10:06:15;12.30;;;5.20;;
59938;SDS011;45801;51.810;19.444;2023-02-04T10:08:45;10.00;;;5.20;;
59938;SDS011;45801;51.810;19.444;2023-02-04T10:11:14;11.20;;;5.30;;
59938;SDS011;45801;51.810;19.444;2023-02-04T10:13:49;13.40;;;5.30;;
59938;SDS011;45801;51.810;19.444;2023-02-04T10:16:20;11.40;;;5.60;;
59938;SDS011;45801;51.810;19.444;2023-02-04T10:18:58;12.40;;;6.00;;
59938;SDS011;45801;51.810;19.444;2023-02-04T10:21:29;9.50;;;5.50;;
59938;SDS011;45801;51.810;19.444;2023-02-04T10:23:58;10.70;;;5.60;;
59938;SDS011;45801;51.810;19.444;2023-02-04T10:26:28;11.60;;;4.00;;
59938;SDS011;45801;51.810;19.444;2023-02-04T10:29:03;10.20;;;4.80;;
59938;SDS011;45801;51.810;19.444;2023-02-04T10:31:42;10.30;;;4.40;;
59938;SDS011;45801;51.810;19.444;2023-02-04T10:34:18;11.60;;;5.70;;
59938;SDS011;45801;51.810;19.444;2023-02-04T10:36:48;13.30;;;5.70;;
59938;SDS011;45801;51.810;19.444;2023-02-04T10:39:18;10.40;;;4.80;;
59938;SDS011;45801;51.810;19.444;2023-02-04T10:41:56;13.50;;;5.80;;
59938;SDS011;45801;51.810;19.444;2023-02-04T10:47:06;13.80;;;6.70;;
59938;SDS011;45801;51.810;19.444;2023-02-04T10:49:59;12.70;;;5.60;;
59938;SDS011;45801;51.810;19.444;2023-02-04T10:52:35;12.40;;;5.60;;
59938;SDS011;45801;51.810;19.444;2023-02-04T10:55:04;14.00;;;6.90;;
59938;SDS011;45801;51.810;19.444;2023-02-04T10:57:34;13.10;;;6.20;;
59938;SDS011;45801;51.810;19.444;2023-02-04T11:00:05;11.50;;;4.90;;
59938;SDS011;45801;51.810;19.444;2023-02-04T11:02:42;11.20;;;4.50;;
59938;SDS011;45801;51.810;19.444;2023-02-04T11:05:13;15.30;;;6.30;;
59938;SDS011;45801;51.810;19.444;2023-02-04T11:07:43;12.20;;;5.40;;
59938;SDS011;45801;51.810;19.444;2023-02-04T11:10:12;13.00;;;6.30;;
59938;SDS011;45801;51.810;19.444;2023-02-04T11:12:45;10.80;;;5.60;;
59938;SDS011;45801;51.810;19.444;2023-02-04T11:18:02;12.90;;;6.20;;
59938;SDS011;45801;51.810;19.444;2023-02-04T11:20:31;13.10;;;6.10;;
59938;SDS011;45801;51.810;19.444;2023-02-04T11:25:42;11.20;;;5.10;;
59938;SDS011;45801;51.810;19.444;2023-02-04T11:28:22;10.90;;;4.90;;
59938;SDS011;45801;51.810;19.444;2023-02-04T11:30:57;11.80;;;5.20;;
59938;SDS011;45801;51.810;19.444;2023-02-04T11:33:32;10.90;;;5.70;;
59938;SDS011;45801;51.810;19.444;2023-02-04T11:36:05;10.70;;;5.20;;
59938;SDS011;45801;51.810;19.444;2023-02-04T11:38:34;11.90;;;6.30;;
59938;SDS011;45801;51.810;19.444;2023-02-04T11:41:01;12.90;;;5.70;;
59938;SDS011;45801;51.810;19.444;2023-02-04T11:43:28;10.70;;;4.80;;
59938;SDS011;45801;51.810;19.444;2023-02-04T11:46:03;9.60;;;5.00;;
59938;SDS011;45801;51.810;19.444;2023-02-04T11:48:37;10.10;;;4.70;;
59938;SDS011;45801;51.810;19.444;2023-02-04T11:51:12;8.70;;;3.90;;
59938;SDS011;45801;51.810;19.444;2023-02-04T11:53:41;10.50;;;4.40;;
59938;SDS011;45801;51.810;19.444;2023-02-04T11:56:15;11.20;;;4.40;;
59938;SDS011;45801;51.810;19.444;2023-02-04T11:58:43;9.80;;;4.10;;
59938;SDS011;45801;51.810;19.444;2023-02-04T12:01:17;9.70;;;5.00;;
59938;SDS011;45801;51.810;19.444;2023-02-04T12:03:45;12.90;;;5.80;;
59938;SDS011;45801;51.810;19.444;2023-02-04T12:06:20;11.20;;;5.00;;
59938;SDS011;45801;51.810;19.444;2023-02-04T12:11:52;9.90;;;4.00;;
59938;SDS011;45801;51.810;19.444;2023-02-04T12:14:20;11.50;;;5.40;;
59938;SDS011;45801;51.810;19.444;2023-02-04T12:16:48;12.30;;;5.60;;
59938;SDS011;45801;51.810;19.444;2023-02-04T12:19:19;11.30;;;5.10;;
59938;SDS011;45801;51.810;19.444;2023-02-04T12:21:45;9.80;;;4.30;;
59938;SDS011;45801;51.810;19.444;2023-02-04T12:24:12;11.00;;;4.30;;
59938;SDS011;45801;51.810;19.444;2023-02-04T12:26:38;11.40;;;5.80;;
59938;SDS011;45801;51.810;19.444;2023-02-04T12:29:05;10.70;;;4.60;;
59938;SDS011;45801;51.810;19.444;2023-02-04T12:31:31;11.80;;;5.50;;
59938;SDS011;45801;51.810;19.444;2023-02-04T12:33:58;9.60;;;5.10;;
59938;SDS011;45801;51.810;19.444;2023-02-04T12:36:25;11.80;;;5.10;;
59938;SDS011;45801;51.810;19.444;2023-02-04T12:38:55;10.80;;;4.90;;
59938;SDS011;45801;51.810;19.444;2023-02-04T12:41:24;11.50;;;5.50;;
59938;SDS011;45801;51.810;19.444;2023-02-04T12:43:51;9.70;;;4.50;;
59938;SDS011;45801;51.810;19.444;2023-02-04T12:46:19;14.60;;;7.20;;
59938;SDS011;45801;51.810;19.444;2023-02-04T12:48:46;11.90;;;5.90;;
59938;SDS011;45801;51.810;19.444;2023-02-04T12:51:12;9.30;;;5.00;;
59938;SDS011;45801;51.810;19.444;2023-02-04T12:53:39;10.40;;;4.60;;
59938;SDS011;45801;51.810;19.444;2023-02-04T12:56:06;13.80;;;7.10;;
59938;SDS011;45801;51.810;19.444;2023-02-04T12:58:32;11.60;;;6.10;;
59938;SDS011;45801;51.810;19.444;2023-02-04T13:00:59;11.40;;;5.20;;
59938;SDS011;45801;51.810;19.444;2023-02-04T13:03:25;11.90;;;5.80;;
59938;SDS011;45801;51.810;19.444;2023-02-04T13:05:52;11.70;;;5.80;;
59938;SDS011;45801;51.810;19.444;2023-02-04T13:08:20;11.20;;;4.60;;
59938;SDS011;45801;51.810;19.444;2023-02-04T13:10:47;13.80;;;6.10;;
59938;SDS011;45801;51.810;19.444;2023-02-04T13:13:17;9.90;;;4.30;;
59938;SDS011;45801;51.810;19.444;2023-02-04T13:15:45;11.10;;;5.20;;
59938;SDS011;45801;51.810;19.444;2023-02-04T13:18:12;11.90;;;6.00;;
59938;SDS011;45801;51.810;19.444;2023-02-04T13:20:38;11.90;;;5.70;;
59938;SDS011;45801;51.810;19.444;2023-02-04T13:23:05;12.00;;;5.40;;
59938;SDS011;45801;51.810;19.444;2023-02-04T13:25:32;9.80;;;4.40;;
59938;SDS011;45801;51.810;19.444;2023-02-04T13:27:59;13.30;;;4.90;;
59938;SDS011;45801;51.810;19.444;2023-02-04T13:30:25;11.30;;;5.00;;
59938;SDS011;45801;51.810;19.444;2023-02-04T13:32:52;13.70;;;6.20;;
59938;SDS011;45801;51.810;19.444;2023-02-04T13:35:19;11.70;;;6.10;;
59938;SDS011;45801;51.810;19.444;2023-02-04T13:37:45;9.40;;;5.00;;
59938;SDS011;45801;51.810;19.444;2023-02-04T13:40:12;11.10;;;4.90;;
59938;SDS011;45801;51.810;19.444;2023-02-04T13:42:39;9.90;;;5.20;;
59938;SDS011;45801;51.810;19.444;2023-02-04T13:45:05;9.80;;;4.10;;
59938;SDS011;45801;51.810;19.444;2023-02-04T13:47:35;11.40;;;4.40;;
59938;SDS011;45801;51.810;19.444;2023-02-04T13:50:02;11.20;;;5.20;;
59938;SDS011;45801;51.810;19.444;2023-02-04T13:52:29;11.60;;;4.90;;
59938;SDS011;45801;51.810;19.444;2023-02-04T13:54:55;12.70;;;6.10;;
59938;SDS011;45801;51.810;19.444;2023-02-04T13:57:22;13.50;;;5.80;;
59938;SDS011;45801;51.810;19.444;2023-02-04T13:59:49;14.00;;;6.40;;
59938;SDS011;45801;51.810;19.444;2023-02-04T14:02:17;12.50;;;5.50;;
59938;SDS011;45801;51.810;19.444;2023-02-04T14:04:45;10.90;;;5.70;;
59938;SDS011;45801;51.810;19.444;2023-02-04T14:07:12;13.60;;;6.30;;
59938;SDS011;45801;51.810;19.444;2023-02-04T14:09:38;13.40;;;6.30;;
59938;SDS011;45801;51.810;19.444;2023-02-04T14:12:05;12.80;;;5.50;;
59938;SDS011;45801;51.810;19.444;2023-02-04T14:14:32;14.30;;;7.00;;
59938;SDS011;45801;51.810;19.444;2023-02-04T14:16:58;12.30;;;5.90;;
59938;SDS011;45801;51.810;19.444;2023-02-04T14:19:25;14.20;;;6.30;;
59938;SDS011;45801;51.810;19.444;2023-02-04T14:21:53;12.00;;;5.50;;
59938;SDS011;45801;51.810;19.444;2023-02-04T14:24:19;13.20;;;6.50;;
59938;SDS011;45801;51.810;19.444;2023-02-04T14:26:46;13.20;;;6.60;;
59938;SDS011;45801;51.810;19.444;2023-02-04T14:29:13;15.40;;;8.30;;
59938;SDS011;45801;51.810;19.444;2023-02-04T14:31:39;14.40;;;6.30;;
59938;SDS011;45801;51.810;19.444;2023-02-04T14:34:06;15.70;;;7.60;;
59938;SDS011;45801;51.810;19.444;2023-02-04T14:36:33;11.20;;;5.30;;
59938;SDS011;45801;51.810;19.444;2023-02-04T14:39:00;14.50;;;5.90;;